sensor_id;sensor_type;location;lat;lon;timestamp;pressure;altitude;pressure_sealevel;temperature;humidity
28606;BME280;46498;49.968;7.754;2023-02-23T00:01:32;96686.00;;;7.98;100.00
28606;BME280;46498;49.968;7.754;2023-02-23T00:06:34;96687.00;;;7.95;100.00
28606;BME280;46498;49.968;7.754;2023-02-23T00:11:35;96687.00;;;8.09;100.00
28606;BME280;46498;49.968;7.754;2023-02-23T00:16:37;96682.00;;;8.11;100.00
28606;BME280;46498;49.968;7.754;2023-02-23T00:21:39;96690.00;;;8.13;100.00
28606;BME280;46498;49.968;7.754;2023-02-23T00:26:40;96686.00;;;8.10;100.00
28606;BME280;46498;49.968;7.754;2023-02-23T00:31:46;96681.00;;;8.12;100.00
28606;BME280;46498;49.968;7.754;2023-02-23T00:36:52;96680.00;;;8.01;100.00
28606;BME280;46498;49.968;7.754;2023-02-23T00:41:55;96677.00;;;7.94;100.00
28606;BME280;46498;49.968;7.754;2023-02-23T00:46:56;96672.00;;;8.05;100.00
28606;BME280;46498;49.968;7.754;2023-02-23T00:51:57;96674.00;;;8.04;100.00
28606;BME280;46498;49.968;7.754;2023-02-23T00:56:58;96671.00;;;8.06;100.00
28606;BME280;46498;49.968;7.754;2023-02-23T01:01:59;96675.00;;;8.06;100.00
28606;BME280;46498;49.968;7.754;2023-02-23T01:07:00;96678.00;;;8.08;100.00
28606;BME280;46498;49.968;7.754;2023-02-23T01:12:03;96672.00;;;8.01;100.00
28606;BME280;46498;49.968;7.754;2023-02-23T01:17:07;96667.00;;;7.94;100.00
28606;BME280;46498;49.968;7.754;2023-02-23T01:22:09;96668.00;;;7.93;100.00
28606;BME280;46498;49.968;7.754;2023-02-23T01:27:13;96665.00;;;8.00;100.00
28606;BME280;46498;49.968;7.754;2023-02-23T01:32:14;96666.00;;;8.02;100.00
28606;BME280;46498;49.968;7.754;2023-02-23T01:37:15;96664.00;;;8.03;100.00
28606;BME280;46498;49.968;7.754;2023-02-23T01:42:16;96664.00;;;7.97;100.00
28606;BME280;46498;49.968;7.754;2023-02-23T01:47:19;96663.00;;;8.04;100.00
28606;BME280;46498;49.968;7.754;2023-02-23T01:52:20;96666.00;;;8.06;100.00
28606;BME280;46498;49.968;7.754;2023-02-23T01:57:22;96661.00;;;8.10;100.00
28606;BME280;46498;49.968;7.754;2023-02-23T02:02:27;96663.00;;;8.08;100.00
28606;BME280;46498;49.968;7.754;2023-02-23T02:07:33;96658.00;;;8.09;100.00
28606;BME280;46498;49.968;7.754;2023-02-23T02:12:34;96652.00;;;8.02;100.00
28606;BME280;46498;49.968;7.754;2023-02-23T02:17:44;96655.00;;;7.97;100.00
28606;BME280;46498;49.968;7.754;2023-02-23T02:37:44;96644.00;;;7.97;100.00
28606;BME280;46498;49.968;7.754;2023-02-23T02:43:37;96649.00;;;7.98;100.00
28606;BME280;46498;49.968;7.754;2023-02-23T02:49:17;96637.00;;;7.96;100.00
28606;BME280;46498;49.968;7.754;2023-02-23T02:54:37;96637.00;;;7.94;100.00
28606;BME280;46498;49.968;7.754;2023-02-23T02:59:46;96637.00;;;7.84;100.00
28606;BME280;46498;49.968;7.754;2023-02-23T03:05:12;96628.00;;;7.83;100.00
28606;BME280;46498;49.968;7.754;2023-02-23T03:10:49;96629.00;;;7.91;100.00
28606;BME280;46498;49.968;7.754;2023-02-23T03:19:00;96632.00;;;7.98;100.00
28606;BME280;46498;49.968;7.754;2023-02-23T03:25:48;96629.00;;;8.01;100.00
28606;BME280;46498;49.968;7.754;2023-02-23T03:31:22;96625.00;;;7.92;100.00
28606;BME280;46498;49.968;7.754;2023-02-23T03:36:53;96639.00;;;7.90;100.00
28606;BME280;46498;49.968;7.754;2023-02-23T03:42:18;96632.00;;;7.89;100.00
28606;BME280;46498;49.968;7.754;2023-02-23T03:47:40;96636.00;;;7.80;100.00
28606;BME280;46498;49.968;7.754;2023-02-23T03:53:02;96634.00;;;7.80;100.00
28606;BME280;46498;49.968;7.754;2023-02-23T03:58:30;96635.00;;;7.87;100.00
28606;BME280;46498;49.968;7.754;2023-02-23T04:03:52;96635.00;;;7.91;100.00
28606;BME280;46498;49.968;7.754;2023-02-23T04:09:14;96632.00;;;7.86;100.00
28606;BME280;46498;49.968;7.754;2023-02-23T04:16:04;96629.00;;;7.80;100.00
28606;BME280;46498;49.968;7.754;2023-02-23T04:21:06;96636.00;;;7.90;100.00
28606;BME280;46498;49.968;7.754;2023-02-23T04:26:07;96643.00;;;7.80;100.00
28606;BME280;46498;49.968;7.754;2023-02-23T04:31:08;96647.00;;;7.80;100.00
28606;BME280;46498;49.968;7.754;2023-02-23T04:36:09;96654.00;;;7.81;100.00
28606;BME280;46498;49.968;7.754;2023-02-23T04:41:10;96655.00;;;7.68;100.00
28606;BME280;46498;49.968;7.754;2023-02-23T04:46:10;96653.00;;;7.75;100.00
28606;BME280;46498;49.968;7.754;2023-02-23T04:51:12;96655.00;;;7.80;100.00
28606;BME280;46498;49.968;7.754;2023-02-23T04:56:13;96658.00;;;7.85;100.00
28606;BME280;46498;49.968;7.754;2023-02-23T05:01:14;96655.00;;;7.80;100.00
28606;BME280;46498;49.968;7.754;2023-02-23T05:06:16;96654.00;;;7.69;100.00
28606;BME280;46498;49.968;7.754;2023-02-23T05:11:17;96653.00;;;7.64;100.00
28606;BME280;46498;49.968;7.754;2023-02-23T05:16:18;96658.00;;;7.71;100.00
28606;BME280;46498;49.968;7.754;2023-02-23T05:21:19;96654.00;;;7.69;100.00
28606;BME280;46498;49.968;7.754;2023-02-23T05:26:21;96655.00;;;7.65;100.00
28606;BME280;46498;49.968;7.754;2023-02-23T05:31:22;96661.00;;;7.68;100.00
28606;BME280;46498;49.968;7.754;2023-02-23T05:36:24;96650.00;;;7.70;100.00
28606;BME280;46498;49.968;7.754;2023-02-23T05:41:25;96658.00;;;7.71;100.00
28606;BME280;46498;49.968;7.754;2023-02-23T05:46:26;96653.00;;;7.78;100.00
28606;BME280;46498;49.968;7.754;2023-02-23T05:51:29;96655.00;;;7.80;100.00
28606;BME280;46498;49.968;7.754;2023-02-23T05:56:30;96667.00;;;7.85;100.00
28606;BME280;46498;49.968;7.754;2023-02-23T06:01:32;96665.00;;;7.88;100.00
28606;BME280;46498;49.968;7.754;2023-02-23T06:06:33;96666.00;;;7.90;100.00
28606;BME280;46498;49.968;7.754;2023-02-23T06:11:33;96663.00;;;7.86;100.00
28606;BME280;46498;49.968;7.754;2023-02-23T06:16:34;96657.00;;;7.88;100.00
28606;BME280;46498;49.968;7.754;2023-02-23T06:21:35;96671.00;;;7.85;100.00
28606;BME280;46498;49.968;7.754;2023-02-23T06:26:36;96662.00;;;7.86;100.00
28606;BME280;46498;49.968;7.754;2023-02-23T06:31:37;96668.00;;;7.91;100.00
28606;BME280;46498;49.968;7.754;2023-02-23T06:36:38;96679.00;;;7.88;100.00
28606;BME280;46498;49.968;7.754;2023-02-23T06:41:40;96676.00;;;7.76;100.00
28606;BME280;46498;49.968;7.754;2023-02-23T06:46:41;96679.00;;;7.81;100.00
28606;BME280;46498;49.968;7.754;2023-02-23T06:51:42;96687.00;;;7.86;100.00
28606;BME280;46498;49.968;7.754;2023-02-23T06:56:43;96681.00;;;7.82;100.00
28606;BME280;46498;49.968;7.754;2023-02-23T07:01:43;96696.00;;;7.81;100.00
28606;BME280;46498;49.968;7.754;2023-02-23T07:06:44;96703.00;;;7.77;100.00
28606;BME280;46498;49.968;7.754;2023-02-23T07:11:45;96699.00;;;7.52;100.00
28606;BME280;46498;49.968;7.754;2023-02-23T07:16:46;96715.00;;;7.45;100.00
28606;BME280;46498;49.968;7.754;2023-02-23T07:21:47;96718.00;;;7.49;100.00
28606;BME280;46498;49.968;7.754;2023-02-23T07:26:48;96721.00;;;7.56;100.00
28606;BME280;46498;49.968;7.754;2023-02-23T07:31:49;96724.00;;;7.66;100.00
28606;BME280;46498;49.968;7.754;2023-02-23T07:36:50;96717.00;;;7.51;100.00
28606;BME280;46498;49.968;7.754;2023-02-23T07:41:51;96725.00;;;7.69;100.00
28606;BME280;46498;49.968;7.754;2023-02-23T07:46:52;96729.00;;;7.85;100.00
28606;BME280;46498;49.968;7.754;2023-02-23T07:51:53;96726.00;;;8.01;100.00
28606;BME280;46498;49.968;7.754;2023-02-23T07:56:55;96727.00;;;8.19;100.00
28606;BME280;46498;49.968;7.754;2023-02-23T08:01:56;96732.00;;;8.55;100.00
28606;BME280;46498;49.968;7.754;2023-02-23T08:06:57;96732.00;;;8.76;100.00
28606;BME280;46498;49.968;7.754;2023-02-23T08:11:58;96744.00;;;8.75;100.00
28606;BME280;46498;49.968;7.754;2023-02-23T08:16:58;96742.00;;;8.93;100.00
28606;BME280;46498;49.968;7.754;2023-02-23T08:22:02;96741.00;;;9.02;100.00
28606;BME280;46498;49.968;7.754;2023-02-23T08:27:03;96746.00;;;9.12;100.00
28606;BME280;46498;49.968;7.754;2023-02-23T08:32:04;96757.00;;;9.45;100.00
28606;BME280;46498;49.968;7.754;2023-02-23T08:37:06;96750.00;;;9.70;100.00
28606;BME280;46498;49.968;7.754;2023-02-23T08:42:07;96754.00;;;9.75;100.00
28606;BME280;46498;49.968;7.754;2023-02-23T08:47:08;96762.00;;;9.54;100.00
28606;BME280;46498;49.968;7.754;2023-02-23T08:52:09;96766.00;;;9.21;100.00
28606;BME280;46498;49.968;7.754;2023-02-23T08:57:10;96766.00;;;9.04;100.00
28606;BME280;46498;49.968;7.754;2023-02-23T09:02:13;96767.00;;;8.94;100.00
28606;BME280;46498;49.968;7.754;2023-02-23T09:07:16;96763.00;;;8.80;100.00
28606;BME280;46498;49.968;7.754;2023-02-23T09:12:17;96774.00;;;9.00;100.00
28606;BME280;46498;49.968;7.754;2023-02-23T09:17:19;96775.00;;;8.72;100.00
28606;BME280;46498;49.968;7.754;2023-02-23T09:22:20;96779.00;;;8.70;100.00
28606;BME280;46498;49.968;7.754;2023-02-23T09:27:21;96776.00;;;8.75;100.00
28606;BME280;46498;49.968;7.754;2023-02-23T09:32:22;96778.00;;;8.68;100.00
28606;BME280;46498;49.968;7.754;2023-02-23T09:37:23;96780.00;;;8.65;100.00
28606;BME280;46498;49.968;7.754;2023-02-23T09:42:56;96780.00;;;8.60;100.00
28606;BME280;46498;49.968;7.754;2023-02-23T09:48:08;96785.00;;;8.72;100.00
28606;BME280;46498;49.968;7.754;2023-02-23T09:53:38;96801.00;;;8.75;100.00
28606;BME280;46498;49.968;7.754;2023-02-23T09:58:40;96806.00;;;8.68;100.00
28606;BME280;46498;49.968;7.754;2023-02-23T10:03:51;96816.00;;;8.67;100.00
28606;BME280;46498;49.968;7.754;2023-02-23T10:21:46;96817.00;;;9.06;100.00
28606;BME280;46498;49.968;7.754;2023-02-23T10:26:54;96816.00;;;9.18;100.00
28606;BME280;46498;49.968;7.754;2023-02-23T10:31:59;96820.00;;;9.09;100.00
28606;BME280;46498;49.968;7.754;2023-02-23T10:37:04;96819.00;;;9.13;100.00
28606;BME280;46498;49.968;7.754;2023-02-23T10:42:14;96826.00;;;9.19;100.00
28606;BME280;46498;49.968;7.754;2023-02-23T10:47:18;96829.00;;;9.40;100.00
28606;BME280;46498;49.968;7.754;2023-02-23T10:52:39;96836.00;;;9.38;100.00
28606;BME280;46498;49.968;7.754;2023-02-23T10:57:42;96831.00;;;9.35;100.00
28606;BME280;46498;49.968;7.754;2023-02-23T11:02:44;96836.00;;;9.26;100.00
28606;BME280;46498;49.968;7.754;2023-02-23T11:07:45;96836.00;;;9.21;100.00
28606;BME280;46498;49.968;7.754;2023-02-23T11:12:46;96838.00;;;9.31;100.00
28606;BME280;46498;49.968;7.754;2023-02-23T11:18:00;96839.00;;;9.33;100.00
28606;BME280;46498;49.968;7.754;2023-02-23T11:23:14;96837.00;;;9.32;100.00
28606;BME280;46498;49.968;7.754;2023-02-23T11:28:21;96835.00;;;9.48;100.00
28606;BME280;46498;49.968;7.754;2023-02-23T11:33:29;96828.00;;;9.65;100.00
28606;BME280;46498;49.968;7.754;2023-02-23T11:38:35;96827.00;;;9.66;100.00
28606;BME280;46498;49.968;7.754;2023-02-23T11:43:36;96827.00;;;9.69;100.00
28606;BME280;46498;49.968;7.754;2023-02-23T11:48:49;96821.00;;;9.81;100.00
28606;BME280;46498;49.968;7.754;2023-02-23T11:53:51;96816.00;;;9.82;100.00
28606;BME280;46498;49.968;7.754;2023-02-23T11:59:05;96818.00;;;10.09;100.00
28606;BME280;46498;49.968;7.754;2023-02-23T12:04:07;96811.00;;;10.17;100.00
28606;BME280;46498;49.968;7.754;2023-02-23T12:09:43;96805.00;;;9.92;100.00
28606;BME280;46498;49.968;7.754;2023-02-23T12:14:52;96808.00;;;10.06;100.00
28606;BME280;46498;49.968;7.754;2023-02-23T12:20:06;96803.00;;;9.82;100.00
28606;BME280;46498;49.968;7.754;2023-02-23T12:26:00;96795.00;;;9.78;100.00
28606;BME280;46498;49.968;7.754;2023-02-23T12:37:15;96793.00;;;9.84;100.00
28606;BME280;46498;49.968;7.754;2023-02-23T12:42:41;96794.00;;;9.92;100.00
28606;BME280;46498;49.968;7.754;2023-02-23T12:48:13;96782.00;;;9.95;100.00
28606;BME280;46498;49.968;7.754;2023-02-23T12:53:38;96792.00;;;9.85;100.00
28606;BME280;46498;49.968;7.754;2023-02-23T12:58:58;96792.00;;;9.87;100.00
28606;BME280;46498;49.968;7.754;2023-02-23T13:11:13;96781.00;;;9.66;100.00
28606;BME280;46498;49.968;7.754;2023-02-23T13:16:26;96772.00;;;9.63;100.00
28606;BME280;46498;49.968;7.754;2023-02-23T13:21:38;96783.00;;;9.70;100.00
28606;BME280;46498;49.968;7.754;2023-02-23T13:26:59;96783.00;;;9.79;100.00
28606;BME280;46498;49.968;7.754;2023-02-23T13:32:03;96789.00;;;9.73;100.00
28606;BME280;46498;49.968;7.754;2023-02-23T13:37:06;96780.00;;;9.74;100.00
28606;BME280;46498;49.968;7.754;2023-02-23T13:42:39;96796.00;;;9.67;100.00
28606;BME280;46498;49.968;7.754;2023-02-23T13:47:51;96785.00;;;9.55;100.00
28606;BME280;46498;49.968;7.754;2023-02-23T13:52:53;96780.00;;;9.41;100.00
28606;BME280;46498;49.968;7.754;2023-02-23T13:58:10;96780.00;;;9.46;100.00
28606;BME280;46498;49.968;7.754;2023-02-23T14:03:25;96784.00;;;9.57;100.00
28606;BME280;46498;49.968;7.754;2023-02-23T14:08:37;96789.00;;;9.43;100.00
28606;BME280;46498;49.968;7.754;2023-02-23T14:13:40;96790.00;;;9.52;100.00
28606;BME280;46498;49.968;7.754;2023-02-23T14:19:10;96798.00;;;9.54;100.00
28606;BME280;46498;49.968;7.754;2023-02-23T14:24:20;96786.00;;;9.43;100.00
28606;BME280;46498;49.968;7.754;2023-02-23T14:29:25;96787.00;;;9.35;100.00
28606;BME280;46498;49.968;7.754;2023-02-23T14:38:00;96780.00;;;9.35;100.00
28606;BME280;46498;49.968;7.754;2023-02-23T14:43:02;96790.00;;;9.43;100.00
28606;BME280;46498;49.968;7.754;2023-02-23T14:48:06;96783.00;;;9.70;100.00
28606;BME280;46498;49.968;7.754;2023-02-23T14:53:41;96792.00;;;9.73;100.00
28606;BME280;46498;49.968;7.754;2023-02-23T14:58:48;96793.00;;;9.75;100.00
28606;BME280;46498;49.968;7.754;2023-02-23T15:04:11;96783.00;;;9.58;100.00
28606;BME280;46498;49.968;7.754;2023-02-23T15:09:15;96786.00;;;9.62;100.00
28606;BME280;46498;49.968;7.754;2023-02-23T15:14:17;96784.00;;;9.54;100.00
28606;BME280;46498;49.968;7.754;2023-02-23T15:19:32;96783.00;;;9.69;100.00
28606;BME280;46498;49.968;7.754;2023-02-23T15:24:46;96790.00;;;9.82;100.00
28606;BME280;46498;49.968;7.754;2023-02-23T15:29:48;96790.00;;;9.88;100.00
28606;BME280;46498;49.968;7.754;2023-02-23T15:34:51;96797.00;;;9.76;100.00
28606;BME280;46498;49.968;7.754;2023-02-23T15:39:59;96799.00;;;9.56;100.00
28606;BME280;46498;49.968;7.754;2023-02-23T15:45:04;96792.00;;;9.61;100.00
28606;BME280;46498;49.968;7.754;2023-02-23T15:50:18;96788.00;;;9.33;100.00
28606;BME280;46498;49.968;7.754;2023-02-23T15:55:36;96786.00;;;9.30;100.00
28606;BME280;46498;49.968;7.754;2023-02-23T16:00:40;96788.00;;;9.34;100.00
28606;BME280;46498;49.968;7.754;2023-02-23T16:06:06;96782.00;;;9.02;100.00
28606;BME280;46498;49.968;7.754;2023-02-23T16:11:16;96793.00;;;9.10;100.00
28606;BME280;46498;49.968;7.754;2023-02-23T16:16:19;96792.00;;;8.91;100.00
28606;BME280;46498;49.968;7.754;2023-02-23T16:21:25;96800.00;;;8.81;100.00
28606;BME280;46498;49.968;7.754;2023-02-23T16:26:34;96806.00;;;8.75;100.00
28606;BME280;46498;49.968;7.754;2023-02-23T16:31:46;96800.00;;;8.66;100.00
28606;BME280;46498;49.968;7.754;2023-02-23T16:36:49;96793.00;;;8.74;100.00
28606;BME280;46498;49.968;7.754;2023-02-23T16:41:51;96805.00;;;8.61;100.00
28606;BME280;46498;49.968;7.754;2023-02-23T16:47:52;96809.00;;;8.49;100.00
28606;BME280;46498;49.968;7.754;2023-02-23T16:52:53;96807.00;;;8.51;100.00
28606;BME280;46498;49.968;7.754;2023-02-23T16:58:02;96795.00;;;8.24;100.00
28606;BME280;46498;49.968;7.754;2023-02-23T17:03:03;96801.00;;;8.21;100.00
28606;BME280;46498;49.968;7.754;2023-02-23T17:08:13;96803.00;;;7.93;100.00
28606;BME280;46498;49.968;7.754;2023-02-23T17:13:20;96805.00;;;7.90;100.00
28606;BME280;46498;49.968;7.754;2023-02-23T17:18:24;96809.00;;;7.83;100.00
28606;BME280;46498;49.968;7.754;2023-02-23T17:23:27;96804.00;;;7.72;100.00
28606;BME280;46498;49.968;7.754;2023-02-23T17:28:38;96816.00;;;7.75;100.00
28606;BME280;46498;49.968;7.754;2023-02-23T17:33:40;96818.00;;;7.73;100.00
28606;BME280;46498;49.968;7.754;2023-02-23T17:38:41;96824.00;;;7.68;100.00
28606;BME280;46498;49.968;7.754;2023-02-23T17:43:45;96820.00;;;7.78;100.00
28606;BME280;46498;49.968;7.754;2023-02-23T17:48:46;96821.00;;;7.66;100.00
28606;BME280;46498;49.968;7.754;2023-02-23T17:53:47;96820.00;;;7.65;100.00
28606;BME280;46498;49.968;7.754;2023-02-23T17:58:49;96820.00;;;7.60;100.00
28606;BME280;46498;49.968;7.754;2023-02-23T18:03:50;96828.00;;;7.71;100.00
28606;BME280;46498;49.968;7.754;2023-02-23T18:08:51;96824.00;;;7.61;100.00
28606;BME280;46498;49.968;7.754;2023-02-23T18:13:52;96831.00;;;7.44;100.00
28606;BME280;46498;49.968;7.754;2023-02-23T18:18:53;96829.00;;;7.48;100.00
28606;BME280;46498;49.968;7.754;2023-02-23T18:23:56;96828.00;;;7.51;100.00
28606;BME280;46498;49.968;7.754;2023-02-23T18:28:58;96824.00;;;7.52;100.00
28606;BME280;46498;49.968;7.754;2023-02-23T18:33:59;96822.00;;;7.41;100.00
28606;BME280;46498;49.968;7.754;2023-02-23T18:39:03;96819.00;;;7.30;100.00
28606;BME280;46498;49.968;7.754;2023-02-23T18:44:06;96813.00;;;7.24;100.00
28606;BME280;46498;49.968;7.754;2023-02-23T18:49:12;96809.00;;;7.09;100.00
28606;BME280;46498;49.968;7.754;2023-02-23T18:54:14;96814.00;;;7.11;100.00
28606;BME280;46498;49.968;7.754;2023-02-23T18:59:18;96815.00;;;7.12;100.00
28606;BME280;46498;49.968;7.754;2023-02-23T19:04:19;96801.00;;;7.01;100.00
28606;BME280;46498;49.968;7.754;2023-02-23T19:09:20;96803.00;;;6.98;100.00
28606;BME280;46498;49.968;7.754;2023-02-23T19:14:21;96803.00;;;6.93;100.00
28606;BME280;46498;49.968;7.754;2023-02-23T19:19:37;96811.00;;;6.72;100.00
28606;BME280;46498;49.968;7.754;2023-02-23T19:24:38;96807.00;;;6.61;100.00
28606;BME280;46498;49.968;7.754;2023-02-23T19:29:40;96801.00;;;6.56;100.00
28606;BME280;46498;49.968;7.754;2023-02-23T19:34:42;96806.00;;;6.62;100.00
28606;BME280;46498;49.968;7.754;2023-02-23T19:39:43;96817.00;;;6.49;100.00
28606;BME280;46498;49.968;7.754;2023-02-23T19:44:46;96822.00;;;6.47;100.00
28606;BME280;46498;49.968;7.754;2023-02-23T19:49:47;96819.00;;;6.44;100.00
28606;BME280;46498;49.968;7.754;2023-02-23T19:54:47;96826.00;;;6.53;100.00
28606;BME280;46498;49.968;7.754;2023-02-23T19:59:48;96831.00;;;6.45;100.00
28606;BME280;46498;49.968;7.754;2023-02-23T20:04:49;96831.00;;;6.49;100.00
28606;BME280;46498;49.968;7.754;2023-02-23T20:09:50;96832.00;;;6.35;100.00
28606;BME280;46498;49.968;7.754;2023-02-23T20:14:51;96834.00;;;6.33;100.00
28606;BME280;46498;49.968;7.754;2023-02-23T20:19:52;96845.00;;;6.37;100.00
28606;BME280;46498;49.968;7.754;2023-02-23T20:24:53;96841.00;;;6.34;100.00
28606;BME280;46498;49.968;7.754;2023-02-23T20:29:56;96841.00;;;6.29;100.00
28606;BME280;46498;49.968;7.754;2023-02-23T20:34:59;96842.00;;;6.30;100.00
28606;BME280;46498;49.968;7.754;2023-02-23T20:40:02;96839.00;;;6.24;100.00
28606;BME280;46498;49.968;7.754;2023-02-23T20:45:10;96842.00;;;6.28;100.00
28606;BME280;46498;49.968;7.754;2023-02-23T20:50:14;96844.00;;;6.22;100.00
28606;BME280;46498;49.968;7.754;2023-02-23T20:55:14;96849.00;;;6.25;100.00
28606;BME280;46498;49.968;7.754;2023-02-23T21:00:19;96847.00;;;6.31;100.00
28606;BME280;46498;49.968;7.754;2023-02-23T21:05:26;96847.00;;;6.34;100.00
28606;BME280;46498;49.968;7.754;2023-02-23T21:10:31;96844.00;;;6.24;100.00
28606;BME280;46498;49.968;7.754;2023-02-23T21:15:32;96845.00;;;6.16;100.00
28606;BME280;46498;49.968;7.754;2023-02-23T21:20:36;96846.00;;;6.24;100.00
28606;BME280;46498;49.968;7.754;2023-02-23T21:25:37;96841.00;;;6.29;100.00
28606;BME280;46498;49.968;7.754;2023-02-23T21:30:38;96834.00;;;6.40;100.00
28606;BME280;46498;49.968;7.754;2023-02-23T21:35:39;96838.00;;;6.20;100.00
28606;BME280;46498;49.968;7.754;2023-02-23T21:40:39;96825.00;;;6.10;100.00
28606;BME280;46498;49.968;7.754;2023-02-23T21:45:41;96824.00;;;6.06;100.00
28606;BME280;46498;49.968;7.754;2023-02-23T21:50:46;96826.00;;;6.18;100.00
28606;BME280;46498;49.968;7.754;2023-02-23T21:55:47;96825.00;;;6.24;100.00
28606;BME280;46498;49.968;7.754;2023-02-23T22:00:47;96818.00;;;6.18;100.00
28606;BME280;46498;49.968;7.754;2023-02-23T22:05:49;96811.00;;;6.13;100.00
28606;BME280;46498;49.968;7.754;2023-02-23T22:10:50;96817.00;;;6.12;100.00
28606;BME280;46498;49.968;7.754;2023-02-23T22:15:57;96812.00;;;6.18;100.00
28606;BME280;46498;49.968;7.754;2023-02-23T22:20:59;96813.00;;;6.12;100.00
28606;BME280;46498;49.968;7.754;2023-02-23T22:26:01;96813.00;;;6.11;100.00
28606;BME280;46498;49.968;7.754;2023-02-23T22:31:03;96811.00;;;5.77;100.00
28606;BME280;46498;49.968;7.754;2023-02-23T22:36:10;96815.00;;;5.82;100.00
28606;BME280;46498;49.968;7.754;2023-02-23T22:41:12;96815.00;;;5.74;100.00
28606;BME280;46498;49.968;7.754;2023-02-23T22:46:15;96809.00;;;5.75;100.00
28606;BME280;46498;49.968;7.754;2023-02-23T22:51:16;96803.00;;;5.72;100.00
28606;BME280;46498;49.968;7.754;2023-02-23T22:56:19;96797.00;;;5.66;100.00
28606;BME280;46498;49.968;7.754;2023-02-23T23:01:20;96798.00;;;5.68;100.00
28606;BME280;46498;49.968;7.754;2023-02-23T23:06:22;96793.00;;;5.69;100.00
28606;BME280;46498;49.968;7.754;2023-02-23T23:11:25;96782.00;;;5.65;100.00
28606;BME280;46498;49.968;7.754;2023-02-23T23:16:30;96777.00;;;5.72;100.00
28606;BME280;46498;49.968;7.754;2023-02-23T23:21:34;96776.00;;;5.66;100.00
28606;BME280;46498;49.968;7.754;2023-02-23T23:26:36;96773.00;;;5.56;100.00
28606;BME280;46498;49.968;7.754;2023-02-23T23:31:41;96766.00;;;5.55;100.00
28606;BME280;46498;49.968;7.754;2023-02-23T23:36:46;96764.00;;;5.57;100.00
28606;BME280;46498;49.968;7.754;2023-02-23T23:41:49;96746.00;;;5.68;100.00
28606;BME280;46498;49.968;7.754;2023-02-23T23:46:49;96748.00;;;5.59;100.00
28606;BME280;46498;49.968;7.754;2023-02-23T23:51:52;96747.00;;;5.57;100.00
28606;BME280;46498;49.968;7.754;2023-02-23T23:56:57;96746.00;;;5.70;100.00
